sensor_id;sensor_type;location;lat;lon;timestamp;temperature;humidity
431;DHT22;202;48.764;9.172;2023-04-07T00:01:06;9.50;53.80
431;DHT22;202;48.764;9.172;2023-04-07T00:08:06;9.50;54.30
431;DHT22;202;48.764;9.172;2023-04-07T00:14:35;9.70;54.80
431;DHT22;202;48.764;9.172;2023-04-07T00:17:46;9.60;53.90
431;DHT22;202;48.764;9.172;2023-04-07T00:24:29;9.40;55.20
431;DHT22;202;48.764;9.172;2023-04-07T00:27:18;9.50;56.40
431;DHT22;202;48.764;9.172;2023-04-07T00:30:12;9.50;56.50
431;DHT22;202;48.764;9.172;2023-04-07T00:39:47;9.40;56.70
431;DHT22;202;48.764;9.172;2023-04-07T00:42:47;9.20;57.10
431;DHT22;202;48.764;9.172;2023-04-07T00:48:44;9.30;59.10
431;DHT22;202;48.764;9.172;2023-04-07T00:51:13;9.30;57.90
431;DHT22;202;48.764;9.172;2023-04-07T00:54:13;9.30;58.40
431;DHT22;202;48.764;9.172;2023-04-07T00:56:45;9.20;58.30
431;DHT22;202;48.764;9.172;2023-04-07T00:59:15;9.30;58.30
431;DHT22;202;48.764;9.172;2023-04-07T01:01:47;9.40;58.50
431;DHT22;202;48.764;9.172;2023-04-07T01:04:32;9.40;58.40
431;DHT22;202;48.764;9.172;2023-04-07T01:07:08;9.40;58.10
431;DHT22;202;48.764;9.172;2023-04-07T01:10:02;9.50;57.80
431;DHT22;202;48.764;9.172;2023-04-07T01:12:38;9.40;57.50
431;DHT22;202;48.764;9.172;2023-04-07T01:15:15;9.50;57.80
431;DHT22;202;48.764;9.172;2023-04-07T01:17:45;9.40;57.90
431;DHT22;202;48.764;9.172;2023-04-07T01:20:22;9.20;56.90
431;DHT22;202;48.764;9.172;2023-04-07T01:22:53;9.20;58.30
431;DHT22;202;48.764;9.172;2023-04-07T01:25:26;9.30;57.70
431;DHT22;202;48.764;9.172;2023-04-07T01:28:14;9.30;57.70
431;DHT22;202;48.764;9.172;2023-04-07T01:30:56;9.30;56.40
431;DHT22;202;48.764;9.172;2023-04-07T01:33:27;9.20;58.30
431;DHT22;202;48.764;9.172;2023-04-07T01:36:02;9.20;59.00
431;DHT22;202;48.764;9.172;2023-04-07T01:38:32;9.20;58.40
431;DHT22;202;48.764;9.172;2023-04-07T01:41:01;9.20;58.30
431;DHT22;202;48.764;9.172;2023-04-07T01:43:29;9.30;58.40
431;DHT22;202;48.764;9.172;2023-04-07T01:46:02;9.20;57.70
431;DHT22;202;48.764;9.172;2023-04-07T01:48:32;9.30;58.60
431;DHT22;202;48.764;9.172;2023-04-07T01:51:03;9.30;57.40
431;DHT22;202;48.764;9.172;2023-04-07T01:53:39;9.20;58.30
431;DHT22;202;48.764;9.172;2023-04-07T01:56:20;9.30;58.40
431;DHT22;202;48.764;9.172;2023-04-07T01:58:48;9.20;58.30
431;DHT22;202;48.764;9.172;2023-04-07T02:01:16;9.10;57.80
431;DHT22;202;48.764;9.172;2023-04-07T02:03:48;9.20;58.20
431;DHT22;202;48.764;9.172;2023-04-07T02:06:25;9.30;57.70
431;DHT22;202;48.764;9.172;2023-04-07T02:08:58;9.40;57.40
431;DHT22;202;48.764;9.172;2023-04-07T02:11:37;9.40;56.70
431;DHT22;202;48.764;9.172;2023-04-07T02:14:13;9.40;56.70
431;DHT22;202;48.764;9.172;2023-04-07T02:17:18;9.50;56.50
431;DHT22;202;48.764;9.172;2023-04-07T02:19:58;9.40;56.30
431;DHT22;202;48.764;9.172;2023-04-07T02:22:39;9.30;56.50
431;DHT22;202;48.764;9.172;2023-04-07T02:25:33;9.40;55.90
431;DHT22;202;48.764;9.172;2023-04-07T02:28:31;9.40;56.40
431;DHT22;202;48.764;9.172;2023-04-07T02:31:12;9.40;55.00
431;DHT22;202;48.764;9.172;2023-04-07T02:34:04;9.40;55.70
431;DHT22;202;48.764;9.172;2023-04-07T02:36:34;9.60;55.90
431;DHT22;202;48.764;9.172;2023-04-07T02:39:01;9.50;55.80
431;DHT22;202;48.764;9.172;2023-04-07T02:41:28;9.50;54.90
431;DHT22;202;48.764;9.172;2023-04-07T02:43:55;9.50;54.70
431;DHT22;202;48.764;9.172;2023-04-07T02:46:22;9.60;54.30
431;DHT22;202;48.764;9.172;2023-04-07T02:48:49;9.70;54.00
431;DHT22;202;48.764;9.172;2023-04-07T02:51:17;9.60;53.20
431;DHT22;202;48.764;9.172;2023-04-07T02:53:44;9.60;53.90
431;DHT22;202;48.764;9.172;2023-04-07T02:56:11;9.70;53.70
431;DHT22;202;48.764;9.172;2023-04-07T02:58:37;9.60;53.50
431;DHT22;202;48.764;9.172;2023-04-07T03:01:04;9.40;53.20
431;DHT22;202;48.764;9.172;2023-04-07T03:03:31;9.50;53.80
431;DHT22;202;48.764;9.172;2023-04-07T03:05:58;9.50;53.00
431;DHT22;202;48.764;9.172;2023-04-07T03:08:26;9.50;52.60
431;DHT22;202;48.764;9.172;2023-04-07T03:10:53;9.50;52.50
431;DHT22;202;48.764;9.172;2023-04-07T03:13:20;9.40;53.00
431;DHT22;202;48.764;9.172;2023-04-07T03:15:47;9.60;53.50
431;DHT22;202;48.764;9.172;2023-04-07T03:18:14;9.50;52.30
431;DHT22;202;48.764;9.172;2023-04-07T03:20:41;9.60;52.20
431;DHT22;202;48.764;9.172;2023-04-07T03:23:09;9.70;51.90
431;DHT22;202;48.764;9.172;2023-04-07T03:25:37;9.70;52.50
431;DHT22;202;48.764;9.172;2023-04-07T03:28:04;9.80;52.00
431;DHT22;202;48.764;9.172;2023-04-07T03:30:31;9.70;52.20
431;DHT22;202;48.764;9.172;2023-04-07T03:32:57;9.70;52.10
431;DHT22;202;48.764;9.172;2023-04-07T03:35:24;9.60;52.50
431;DHT22;202;48.764;9.172;2023-04-07T03:37:51;9.50;53.20
431;DHT22;202;48.764;9.172;2023-04-07T03:40:18;9.40;53.70
431;DHT22;202;48.764;9.172;2023-04-07T03:42:47;9.40;53.70
431;DHT22;202;48.764;9.172;2023-04-07T03:45:14;9.30;54.00
431;DHT22;202;48.764;9.172;2023-04-07T03:47:41;9.30;54.00
431;DHT22;202;48.764;9.172;2023-04-07T03:50:09;9.40;53.80
431;DHT22;202;48.764;9.172;2023-04-07T03:52:36;9.50;53.80
431;DHT22;202;48.764;9.172;2023-04-07T03:55:03;9.40;53.30
431;DHT22;202;48.764;9.172;2023-04-07T03:57:30;9.50;53.80
431;DHT22;202;48.764;9.172;2023-04-07T03:59:58;9.30;53.70
431;DHT22;202;48.764;9.172;2023-04-07T04:02:25;9.40;53.80
431;DHT22;202;48.764;9.172;2023-04-07T04:04:52;9.40;53.80
431;DHT22;202;48.764;9.172;2023-04-07T04:07:19;9.30;54.20
431;DHT22;202;48.764;9.172;2023-04-07T04:09:46;9.40;53.70
431;DHT22;202;48.764;9.172;2023-04-07T04:12:12;9.20;54.10
431;DHT22;202;48.764;9.172;2023-04-07T04:14:39;9.20;54.20
431;DHT22;202;48.764;9.172;2023-04-07T04:17:07;9.30;54.20
431;DHT22;202;48.764;9.172;2023-04-07T04:19:34;9.20;54.10
431;DHT22;202;48.764;9.172;2023-04-07T04:22:01;9.20;55.00
431;DHT22;202;48.764;9.172;2023-04-07T04:24:28;9.30;53.60
431;DHT22;202;48.764;9.172;2023-04-07T04:26:55;9.40;53.70
431;DHT22;202;48.764;9.172;2023-04-07T04:29:22;9.40;53.70
431;DHT22;202;48.764;9.172;2023-04-07T04:31:49;9.40;53.80
431;DHT22;202;48.764;9.172;2023-04-07T04:34:17;9.30;53.60
431;DHT22;202;48.764;9.172;2023-04-07T04:36:45;9.40;53.70
431;DHT22;202;48.764;9.172;2023-04-07T04:39:15;9.40;53.70
431;DHT22;202;48.764;9.172;2023-04-07T04:41:44;9.40;53.70
431;DHT22;202;48.764;9.172;2023-04-07T04:44:28;9.50;52.70
431;DHT22;202;48.764;9.172;2023-04-07T04:47:10;9.60;52.70
431;DHT22;202;48.764;9.172;2023-04-07T04:49:47;9.60;52.20
431;DHT22;202;48.764;9.172;2023-04-07T04:52:14;9.60;52.60
431;DHT22;202;48.764;9.172;2023-04-07T04:54:47;9.60;51.90
431;DHT22;202;48.764;9.172;2023-04-07T04:57:34;9.60;52.10
431;DHT22;202;48.764;9.172;2023-04-07T05:00:06;9.70;51.50
431;DHT22;202;48.764;9.172;2023-04-07T05:02:37;9.70;52.20
431;DHT22;202;48.764;9.172;2023-04-07T05:05:06;9.70;52.40
431;DHT22;202;48.764;9.172;2023-04-07T05:07:33;9.70;51.80
431;DHT22;202;48.764;9.172;2023-04-07T05:10:05;9.80;52.20
431;DHT22;202;48.764;9.172;2023-04-07T05:12:44;9.80;51.50
431;DHT22;202;48.764;9.172;2023-04-07T05:15:18;9.80;50.60
431;DHT22;202;48.764;9.172;2023-04-07T05:17:54;9.80;51.20
431;DHT22;202;48.764;9.172;2023-04-07T05:20:25;9.90;50.70
431;DHT22;202;48.764;9.172;2023-04-07T05:22:55;9.80;50.30
431;DHT22;202;48.764;9.172;2023-04-07T05:25:23;9.80;50.10
431;DHT22;202;48.764;9.172;2023-04-07T05:27:50;9.90;50.00
431;DHT22;202;48.764;9.172;2023-04-07T05:30:20;9.90;49.60
431;DHT22;202;48.764;9.172;2023-04-07T05:32:52;9.80;49.30
431;DHT22;202;48.764;9.172;2023-04-07T05:35:18;9.70;50.50
431;DHT22;202;48.764;9.172;2023-04-07T05:37:47;9.70;50.40
431;DHT22;202;48.764;9.172;2023-04-07T05:40:17;9.70;50.30
431;DHT22;202;48.764;9.172;2023-04-07T05:42:44;9.70;50.40
431;DHT22;202;48.764;9.172;2023-04-07T05:45:11;9.60;50.80
431;DHT22;202;48.764;9.172;2023-04-07T05:47:39;9.70;51.50
431;DHT22;202;48.764;9.172;2023-04-07T05:50:31;9.80;50.30
431;DHT22;202;48.764;9.172;2023-04-07T05:53:11;9.70;50.10
431;DHT22;202;48.764;9.172;2023-04-07T05:55:41;9.80;50.80
431;DHT22;202;48.764;9.172;2023-04-07T05:58:08;9.80;50.20
431;DHT22;202;48.764;9.172;2023-04-07T06:00:35;9.80;50.30
431;DHT22;202;48.764;9.172;2023-04-07T06:03:02;9.80;50.60
431;DHT22;202;48.764;9.172;2023-04-07T06:05:29;9.80;50.50
431;DHT22;202;48.764;9.172;2023-04-07T06:07:56;9.80;50.40
431;DHT22;202;48.764;9.172;2023-04-07T06:10:24;9.80;50.80
431;DHT22;202;48.764;9.172;2023-04-07T06:12:51;9.90;50.10
431;DHT22;202;48.764;9.172;2023-04-07T06:15:18;9.90;50.20
431;DHT22;202;48.764;9.172;2023-04-07T06:17:45;10.00;48.70
431;DHT22;202;48.764;9.172;2023-04-07T06:20:12;10.00;49.50
431;DHT22;202;48.764;9.172;2023-04-07T06:22:39;10.10;48.60
431;DHT22;202;48.764;9.172;2023-04-07T06:25:06;10.10;48.60
431;DHT22;202;48.764;9.172;2023-04-07T06:27:34;10.10;49.10
431;DHT22;202;48.764;9.172;2023-04-07T06:30:01;10.20;48.10
431;DHT22;202;48.764;9.172;2023-04-07T06:32:28;10.00;48.50
431;DHT22;202;48.764;9.172;2023-04-07T06:34:56;10.10;48.60
431;DHT22;202;48.764;9.172;2023-04-07T06:37:23;10.10;49.30
431;DHT22;202;48.764;9.172;2023-04-07T06:39:51;10.10;48.60
431;DHT22;202;48.764;9.172;2023-04-07T06:42:18;10.30;48.80
431;DHT22;202;48.764;9.172;2023-04-07T06:44:46;10.30;47.90
431;DHT22;202;48.764;9.172;2023-04-07T06:50:34;10.30;48.10
431;DHT22;202;48.764;9.172;2023-04-07T06:53:35;10.30;48.20
431;DHT22;202;48.764;9.172;2023-04-07T06:56:09;10.30;48.20
431;DHT22;202;48.764;9.172;2023-04-07T06:58:55;10.30;47.60
431;DHT22;202;48.764;9.172;2023-04-07T07:01:37;10.40;47.80
431;DHT22;202;48.764;9.172;2023-04-07T07:04:15;10.40;47.30
431;DHT22;202;48.764;9.172;2023-04-07T07:07:13;10.50;47.70
431;DHT22;202;48.764;9.172;2023-04-07T07:10:14;10.50;47.30
431;DHT22;202;48.764;9.172;2023-04-07T07:15:54;10.40;47.70
431;DHT22;202;48.764;9.172;2023-04-07T07:18:30;10.30;48.10
431;DHT22;202;48.764;9.172;2023-04-07T07:21:35;10.40;47.90
431;DHT22;202;48.764;9.172;2023-04-07T07:24:30;10.70;47.60
431;DHT22;202;48.764;9.172;2023-04-07T07:27:08;10.70;47.30
431;DHT22;202;48.764;9.172;2023-04-07T07:29:35;10.80;47.40
431;DHT22;202;48.764;9.172;2023-04-07T07:32:02;10.60;47.60
431;DHT22;202;48.764;9.172;2023-04-07T07:42:02;10.60;48.50
431;DHT22;202;48.764;9.172;2023-04-07T07:45:01;10.70;48.50
431;DHT22;202;48.764;9.172;2023-04-07T07:57:54;11.00;48.40
431;DHT22;202;48.764;9.172;2023-04-07T08:00:55;11.30;48.00
431;DHT22;202;48.764;9.172;2023-04-07T08:04:41;11.70;45.20
431;DHT22;202;48.764;9.172;2023-04-07T08:07:29;12.30;45.30
431;DHT22;202;48.764;9.172;2023-04-07T08:09:58;13.30;41.70
431;DHT22;202;48.764;9.172;2023-04-07T08:12:32;13.90;41.00
431;DHT22;202;48.764;9.172;2023-04-07T08:15:01;14.30;38.10
431;DHT22;202;48.764;9.172;2023-04-07T08:17:28;15.00;37.60
431;DHT22;202;48.764;9.172;2023-04-07T08:19:55;15.70;33.70
431;DHT22;202;48.764;9.172;2023-04-07T08:22:22;15.90;33.10
431;DHT22;202;48.764;9.172;2023-04-07T08:24:50;16.20;32.00
431;DHT22;202;48.764;9.172;2023-04-07T08:27:24;16.40;30.80
431;DHT22;202;48.764;9.172;2023-04-07T08:29:58;16.10;30.90
431;DHT22;202;48.764;9.172;2023-04-07T08:32:52;14.60;34.80
431;DHT22;202;48.764;9.172;2023-04-07T08:35:35;14.10;37.40
431;DHT22;202;48.764;9.172;2023-04-07T08:38:26;14.30;37.80
431;DHT22;202;48.764;9.172;2023-04-07T08:41:09;15.00;36.70
431;DHT22;202;48.764;9.172;2023-04-07T08:44:11;15.30;34.90
431;DHT22;202;48.764;9.172;2023-04-07T08:46:55;15.60;33.90
431;DHT22;202;48.764;9.172;2023-04-07T08:49:35;16.10;33.70
431;DHT22;202;48.764;9.172;2023-04-07T08:52:09;16.30;32.30
431;DHT22;202;48.764;9.172;2023-04-07T08:54:37;16.30;32.00
431;DHT22;202;48.764;9.172;2023-04-07T08:57:07;15.80;33.00
431;DHT22;202;48.764;9.172;2023-04-07T08:59:41;15.50;32.80
431;DHT22;202;48.764;9.172;2023-04-07T09:02:14;15.40;34.00
431;DHT22;202;48.764;9.172;2023-04-07T09:53:40;16.70;30.70
431;DHT22;202;48.764;9.172;2023-04-07T09:56:58;16.10;31.60
431;DHT22;202;48.764;9.172;2023-04-07T10:10:57;15.10;33.80
431;DHT22;202;48.764;9.172;2023-04-07T10:14:03;15.00;34.40
431;DHT22;202;48.764;9.172;2023-04-07T10:17:06;14.80;35.00
431;DHT22;202;48.764;9.172;2023-04-07T11:41:09;14.00;43.20
431;DHT22;202;48.764;9.172;2023-04-07T11:43:37;14.00;45.70
431;DHT22;202;48.764;9.172;2023-04-07T11:46:09;14.10;43.60
431;DHT22;202;48.764;9.172;2023-04-07T11:48:38;14.00;43.10
431;DHT22;202;48.764;9.172;2023-04-07T11:51:15;14.10;42.30
431;DHT22;202;48.764;9.172;2023-04-07T11:53:56;14.20;42.50
431;DHT22;202;48.764;9.172;2023-04-07T11:56:26;14.00;43.00
431;DHT22;202;48.764;9.172;2023-04-07T12:01:40;13.90;47.10
431;DHT22;202;48.764;9.172;2023-04-07T12:04:12;13.60;47.40
431;DHT22;202;48.764;9.172;2023-04-07T12:06:39;13.40;48.70
431;DHT22;202;48.764;9.172;2023-04-07T12:09:30;13.10;50.80
431;DHT22;202;48.764;9.172;2023-04-07T12:12:33;12.90;52.60
431;DHT22;202;48.764;9.172;2023-04-07T12:15:08;12.40;52.80
431;DHT22;202;48.764;9.172;2023-04-07T12:17:37;12.20;55.20
431;DHT22;202;48.764;9.172;2023-04-07T12:20:21;12.20;55.70
431;DHT22;202;48.764;9.172;2023-04-07T12:23:05;12.30;57.20
431;DHT22;202;48.764;9.172;2023-04-07T12:25:34;12.30;58.70
431;DHT22;202;48.764;9.172;2023-04-07T12:28:02;12.20;60.00
431;DHT22;202;48.764;9.172;2023-04-07T12:30:54;12.30;60.00
431;DHT22;202;48.764;9.172;2023-04-07T12:33:28;12.30;62.10
431;DHT22;202;48.764;9.172;2023-04-07T12:35:58;12.30;60.60
431;DHT22;202;48.764;9.172;2023-04-07T12:38:27;12.30;59.30
431;DHT22;202;48.764;9.172;2023-04-07T12:41:23;12.40;54.00
431;DHT22;202;48.764;9.172;2023-04-07T12:44:05;12.20;56.20
431;DHT22;202;48.764;9.172;2023-04-07T12:46:35;12.30;58.80
431;DHT22;202;48.764;9.172;2023-04-07T12:49:26;12.30;59.20
431;DHT22;202;48.764;9.172;2023-04-07T12:54:57;12.20;59.20
431;DHT22;202;48.764;9.172;2023-04-07T12:58:52;11.90;57.30
431;DHT22;202;48.764;9.172;2023-04-07T13:01:47;12.00;59.40
431;DHT22;202;48.764;9.172;2023-04-07T13:04:19;12.10;59.60
431;DHT22;202;48.764;9.172;2023-04-07T13:06:59;12.10;60.00
431;DHT22;202;48.764;9.172;2023-04-07T13:09:57;12.10;58.70
431;DHT22;202;48.764;9.172;2023-04-07T13:12:33;12.30;60.00
431;DHT22;202;48.764;9.172;2023-04-07T13:15:02;12.40;57.80
431;DHT22;202;48.764;9.172;2023-04-07T13:17:31;12.50;57.90
431;DHT22;202;48.764;9.172;2023-04-07T13:20:03;12.60;57.60
431;DHT22;202;48.764;9.172;2023-04-07T13:22:30;12.60;56.70
431;DHT22;202;48.764;9.172;2023-04-07T13:25:05;12.50;56.50
431;DHT22;202;48.764;9.172;2023-04-07T13:27:34;12.60;54.90
431;DHT22;202;48.764;9.172;2023-04-07T13:30:04;12.50;55.70
431;DHT22;202;48.764;9.172;2023-04-07T13:32:41;12.40;55.50
431;DHT22;202;48.764;9.172;2023-04-07T13:35:11;12.40;57.60
431;DHT22;202;48.764;9.172;2023-04-07T13:37:40;12.30;59.10
431;DHT22;202;48.764;9.172;2023-04-07T13:40:09;12.40;60.10
431;DHT22;202;48.764;9.172;2023-04-07T13:42:38;12.40;60.10
431;DHT22;202;48.764;9.172;2023-04-07T13:45:14;12.60;58.20
431;DHT22;202;48.764;9.172;2023-04-07T13:48:10;12.60;58.00
431;DHT22;202;48.764;9.172;2023-04-07T13:50:48;12.60;56.20
431;DHT22;202;48.764;9.172;2023-04-07T13:53:15;12.60;57.00
431;DHT22;202;48.764;9.172;2023-04-07T13:55:44;12.60;57.10
431;DHT22;202;48.764;9.172;2023-04-07T13:58:14;12.60;57.80
431;DHT22;202;48.764;9.172;2023-04-07T14:00:44;12.60;57.10
431;DHT22;202;48.764;9.172;2023-04-07T14:03:13;12.70;55.30
431;DHT22;202;48.764;9.172;2023-04-07T14:05:39;12.70;53.80
431;DHT22;202;48.764;9.172;2023-04-07T14:08:06;12.80;55.40
431;DHT22;202;48.764;9.172;2023-04-07T14:10:33;12.90;55.90
431;DHT22;202;48.764;9.172;2023-04-07T14:13:00;12.90;55.10
431;DHT22;202;48.764;9.172;2023-04-07T14:15:27;13.00;51.80
431;DHT22;202;48.764;9.172;2023-04-07T14:17:54;13.10;50.30
431;DHT22;202;48.764;9.172;2023-04-07T14:20:22;13.00;51.50
431;DHT22;202;48.764;9.172;2023-04-07T14:23:06;13.00;51.70
431;DHT22;202;48.764;9.172;2023-04-07T14:25:43;13.10;51.90
431;DHT22;202;48.764;9.172;2023-04-07T14:28:10;13.00;50.70
431;DHT22;202;48.764;9.172;2023-04-07T14:30:40;13.10;50.20
431;DHT22;202;48.764;9.172;2023-04-07T14:35:50;13.10;53.00
431;DHT22;202;48.764;9.172;2023-04-07T14:38:53;13.10;53.80
431;DHT22;202;48.764;9.172;2023-04-07T14:41:27;13.10;54.20
431;DHT22;202;48.764;9.172;2023-04-07T14:44:27;13.10;55.10
431;DHT22;202;48.764;9.172;2023-04-07T14:47:18;13.20;51.90
431;DHT22;202;48.764;9.172;2023-04-07T14:50:04;13.20;52.90
431;DHT22;202;48.764;9.172;2023-04-07T14:52:36;13.20;51.50
431;DHT22;202;48.764;9.172;2023-04-07T14:55:16;13.30;52.70
431;DHT22;202;48.764;9.172;2023-04-07T14:57:53;13.30;53.70
431;DHT22;202;48.764;9.172;2023-04-07T15:00:24;13.30;51.50
431;DHT22;202;48.764;9.172;2023-04-07T15:02:56;13.30;51.50
431;DHT22;202;48.764;9.172;2023-04-07T15:05:31;13.30;53.70
431;DHT22;202;48.764;9.172;2023-04-07T15:08:05;13.30;53.90
431;DHT22;202;48.764;9.172;2023-04-07T15:10:37;13.30;52.50
431;DHT22;202;48.764;9.172;2023-04-07T15:13:09;13.30;52.20
431;DHT22;202;48.764;9.172;2023-04-07T15:15:48;13.30;52.80
431;DHT22;202;48.764;9.172;2023-04-07T15:18:15;13.40;51.20
431;DHT22;202;48.764;9.172;2023-04-07T15:20:42;13.40;50.20
431;DHT22;202;48.764;9.172;2023-04-07T15:23:13;13.40;49.10
431;DHT22;202;48.764;9.172;2023-04-07T15:25:43;13.40;46.70
431;DHT22;202;48.764;9.172;2023-04-07T15:28:10;13.50;47.80
431;DHT22;202;48.764;9.172;2023-04-07T15:30:39;13.50;46.80
431;DHT22;202;48.764;9.172;2023-04-07T15:33:10;13.50;47.30
431;DHT22;202;48.764;9.172;2023-04-07T15:35:37;13.50;48.30
431;DHT22;202;48.764;9.172;2023-04-07T15:38:04;13.60;47.30
431;DHT22;202;48.764;9.172;2023-04-07T15:40:35;13.70;47.00
431;DHT22;202;48.764;9.172;2023-04-07T15:45:57;13.70;47.00
431;DHT22;202;48.764;9.172;2023-04-07T15:48:27;13.70;47.00
431;DHT22;202;48.764;9.172;2023-04-07T15:50:54;13.70;47.00
431;DHT22;202;48.764;9.172;2023-04-07T15:53:29;13.70;47.00
431;DHT22;202;48.764;9.172;2023-04-07T15:56:06;13.70;46.50
431;DHT22;202;48.764;9.172;2023-04-07T15:58:36;13.70;48.00
431;DHT22;202;48.764;9.172;2023-04-07T16:01:05;13.70;47.50
431;DHT22;202;48.764;9.172;2023-04-07T16:03:40;13.70;47.00
431;DHT22;202;48.764;9.172;2023-04-07T16:06:10;13.80;47.10
431;DHT22;202;48.764;9.172;2023-04-07T16:08:37;13.80;47.30
431;DHT22;202;48.764;9.172;2023-04-07T16:11:06;13.80;47.10
431;DHT22;202;48.764;9.172;2023-04-07T16:13:38;13.90;47.10
431;DHT22;202;48.764;9.172;2023-04-07T16:16:09;14.00;47.20
431;DHT22;202;48.764;9.172;2023-04-07T16:18:39;14.00;47.20
431;DHT22;202;48.764;9.172;2023-04-07T16:21:06;14.00;47.00
431;DHT22;202;48.764;9.172;2023-04-07T16:23:35;14.00;47.20
431;DHT22;202;48.764;9.172;2023-04-07T16:26:07;14.00;45.90
431;DHT22;202;48.764;9.172;2023-04-07T16:29:02;13.90;44.60
431;DHT22;202;48.764;9.172;2023-04-07T16:31:34;13.90;46.20
431;DHT22;202;48.764;9.172;2023-04-07T16:48:17;13.70;48.10
431;DHT22;202;48.764;9.172;2023-04-07T16:50:50;13.60;46.90
431;DHT22;202;48.764;9.172;2023-04-07T16:54:02;13.70;46.80
431;DHT22;202;48.764;9.172;2023-04-07T16:57:25;13.80;46.50
431;DHT22;202;48.764;9.172;2023-04-07T17:10:58;13.50;47.20
431;DHT22;202;48.764;9.172;2023-04-07T18:26:32;12.30;50.70
431;DHT22;202;48.764;9.172;2023-04-07T18:29:20;12.30;50.60
431;DHT22;202;48.764;9.172;2023-04-07T18:35:28;12.20;50.80
431;DHT22;202;48.764;9.172;2023-04-07T18:38:24;12.10;51.70
431;DHT22;202;48.764;9.172;2023-04-07T18:49:16;11.90;50.20
431;DHT22;202;48.764;9.172;2023-04-07T20:00:13;11.50;54.40
431;DHT22;202;48.764;9.172;2023-04-07T20:02:41;11.50;54.60
431;DHT22;202;48.764;9.172;2023-04-07T20:05:08;11.60;53.70
431;DHT22;202;48.764;9.172;2023-04-07T20:07:38;11.40;54.50
431;DHT22;202;48.764;9.172;2023-04-07T20:10:10;11.50;54.60
431;DHT22;202;48.764;9.172;2023-04-07T20:12:40;11.50;54.60
431;DHT22;202;48.764;9.172;2023-04-07T20:15:14;11.50;55.20
431;DHT22;202;48.764;9.172;2023-04-07T20:17:48;11.60;54.80
431;DHT22;202;48.764;9.172;2023-04-07T20:20:17;11.60;55.00
431;DHT22;202;48.764;9.172;2023-04-07T20:22:51;11.50;55.20
431;DHT22;202;48.764;9.172;2023-04-07T20:25:21;11.50;55.50
431;DHT22;202;48.764;9.172;2023-04-07T20:27:53;11.40;56.20
431;DHT22;202;48.764;9.172;2023-04-07T20:30:33;11.40;56.20
431;DHT22;202;48.764;9.172;2023-04-07T20:33:07;11.40;56.30
431;DHT22;202;48.764;9.172;2023-04-07T20:35:36;11.30;56.70
431;DHT22;202;48.764;9.172;2023-04-07T20:38:03;11.40;56.90
431;DHT22;202;48.764;9.172;2023-04-07T20:40:33;11.40;56.60
431;DHT22;202;48.764;9.172;2023-04-07T20:43:00;11.40;56.50
431;DHT22;202;48.764;9.172;2023-04-07T20:45:28;11.40;56.30
431;DHT22;202;48.764;9.172;2023-04-07T20:47:55;11.40;56.50
431;DHT22;202;48.764;9.172;2023-04-07T20:50:22;11.40;56.60
431;DHT22;202;48.764;9.172;2023-04-07T20:52:49;11.40;56.60
431;DHT22;202;48.764;9.172;2023-04-07T20:55:17;11.40;56.60
431;DHT22;202;48.764;9.172;2023-04-07T20:57:43;11.30;56.70
431;DHT22;202;48.764;9.172;2023-04-07T21:00:11;11.30;56.60
431;DHT22;202;48.764;9.172;2023-04-07T21:02:39;11.30;56.60
431;DHT22;202;48.764;9.172;2023-04-07T21:05:06;11.30;56.30
431;DHT22;202;48.764;9.172;2023-04-07T21:07:33;11.40;56.60
431;DHT22;202;48.764;9.172;2023-04-07T21:10:00;11.30;56.50
431;DHT22;202;48.764;9.172;2023-04-07T21:12:27;11.20;56.70
431;DHT22;202;48.764;9.172;2023-04-07T21:14:54;11.20;56.40
431;DHT22;202;48.764;9.172;2023-04-07T21:17:21;11.20;57.20
431;DHT22;202;48.764;9.172;2023-04-07T21:19:49;11.20;57.50
431;DHT22;202;48.764;9.172;2023-04-07T21:22:15;11.10;57.20
431;DHT22;202;48.764;9.172;2023-04-07T21:24:42;11.10;57.80
431;DHT22;202;48.764;9.172;2023-04-07T21:27:09;11.00;58.00
431;DHT22;202;48.764;9.172;2023-04-07T21:29:36;11.00;58.00
431;DHT22;202;48.764;9.172;2023-04-07T21:32:04;11.00;58.40
431;DHT22;202;48.764;9.172;2023-04-07T21:34:31;11.10;58.00
431;DHT22;202;48.764;9.172;2023-04-07T21:37:00;11.00;58.00
431;DHT22;202;48.764;9.172;2023-04-07T21:39:26;11.00;58.90
431;DHT22;202;48.764;9.172;2023-04-07T21:41:53;10.90;58.80
431;DHT22;202;48.764;9.172;2023-04-07T21:44:21;11.00;58.90
431;DHT22;202;48.764;9.172;2023-04-07T21:46:48;11.00;58.90
431;DHT22;202;48.764;9.172;2023-04-07T21:49:19;11.00;58.90
431;DHT22;202;48.764;9.172;2023-04-07T21:51:52;11.00;59.10
431;DHT22;202;48.764;9.172;2023-04-07T21:54:21;11.00;59.70
431;DHT22;202;48.764;9.172;2023-04-07T21:56:49;11.00;59.30
431;DHT22;202;48.764;9.172;2023-04-07T21:59:19;11.00;59.00
431;DHT22;202;48.764;9.172;2023-04-07T22:01:46;11.00;59.30
431;DHT22;202;48.764;9.172;2023-04-07T22:04:13;11.10;59.00
431;DHT22;202;48.764;9.172;2023-04-07T22:06:40;11.10;59.00
431;DHT22;202;48.764;9.172;2023-04-07T22:09:07;11.20;59.10
431;DHT22;202;48.764;9.172;2023-04-07T22:11:36;11.20;58.40
431;DHT22;202;48.764;9.172;2023-04-07T22:14:03;11.20;58.50
431;DHT22;202;48.764;9.172;2023-04-07T22:16:30;11.30;58.30
431;DHT22;202;48.764;9.172;2023-04-07T22:18:57;11.30;58.00
431;DHT22;202;48.764;9.172;2023-04-07T22:21:24;11.30;58.00
431;DHT22;202;48.764;9.172;2023-04-07T22:23:51;11.40;58.00
431;DHT22;202;48.764;9.172;2023-04-07T22:26:18;11.30;58.10
431;DHT22;202;48.764;9.172;2023-04-07T22:28:46;11.40;58.20
431;DHT22;202;48.764;9.172;2023-04-07T22:31:13;11.30;58.20
431;DHT22;202;48.764;9.172;2023-04-07T22:33:40;11.30;58.20
431;DHT22;202;48.764;9.172;2023-04-07T22:36:08;11.30;58.20
431;DHT22;202;48.764;9.172;2023-04-07T22:38:35;11.30;57.90
431;DHT22;202;48.764;9.172;2023-04-07T22:41:02;11.00;58.90
431;DHT22;202;48.764;9.172;2023-04-07T22:46:32;10.80;62.00
431;DHT22;202;48.764;9.172;2023-04-07T22:48:59;10.60;63.30
431;DHT22;202;48.764;9.172;2023-04-07T22:51:25;10.60;64.60
431;DHT22;202;48.764;9.172;2023-04-07T22:53:56;10.60;65.50
431;DHT22;202;48.764;9.172;2023-04-07T22:56:23;10.80;64.70
431;DHT22;202;48.764;9.172;2023-04-07T22:58:51;10.90;63.80
431;DHT22;202;48.764;9.172;2023-04-07T23:01:18;10.90;63.60
431;DHT22;202;48.764;9.172;2023-04-07T23:03:49;11.00;63.70
431;DHT22;202;48.764;9.172;2023-04-07T23:06:16;11.00;63.70
431;DHT22;202;48.764;9.172;2023-04-07T23:08:44;11.10;63.10
431;DHT22;202;48.764;9.172;2023-04-07T23:11:11;11.10;63.00
431;DHT22;202;48.764;9.172;2023-04-07T23:13:37;11.20;62.70
431;DHT22;202;48.764;9.172;2023-04-07T23:16:05;11.20;62.30
431;DHT22;202;48.764;9.172;2023-04-07T23:18:32;11.20;62.40
431;DHT22;202;48.764;9.172;2023-04-07T23:21:01;11.20;61.50
431;DHT22;202;48.764;9.172;2023-04-07T23:23:28;11.20;61.90
431;DHT22;202;48.764;9.172;2023-04-07T23:25:54;11.20;62.20
431;DHT22;202;48.764;9.172;2023-04-07T23:28:21;11.20;62.30
431;DHT22;202;48.764;9.172;2023-04-07T23:30:48;11.20;61.80
431;DHT22;202;48.764;9.172;2023-04-07T23:33:15;11.10;61.90
431;DHT22;202;48.764;9.172;2023-04-07T23:35:42;11.00;62.00
431;DHT22;202;48.764;9.172;2023-04-07T23:38:10;11.10;62.90
431;DHT22;202;48.764;9.172;2023-04-07T23:40:37;11.10;63.40
431;DHT22;202;48.764;9.172;2023-04-07T23:43:03;11.10;63.30